<?xml version='1.0' encoding='UTF-8'?><gpx version="1.1" creator="JPX - https://github.com/jenetics/jpx" xmlns="http://www.topografix.com/GPX/1/1"><trk><trkseg><trkpt lat="53.76464991245321" lon="11.097801009344426"><ele>50.00000000000001</ele><time>2026-04-24T14:19:43.922Z</time></trkpt><trkpt lat="53.76466450332835" lon="11.097906575741915"><ele>50.0</ele><time>2026-04-24T14:19:53.922Z</time></trkpt><trkpt lat="53.76473442760849" lon="11.097906556001197"><ele>50.0</ele><time>2026-04-24T14:20:03.922Z</time></trkpt><trkpt lat="53.76468739194742" lon="11.097786053236627"><ele>50.0</ele><time>2026-04-24T14:21:41.921Z</time></trkpt><trkpt lat="53.76472054358909" lon="11.097683135139748"><ele>50.00000000000001</ele><time>2026-04-24T14:21:43.921Z</time></trkpt><trkpt lat="53.76482125125178" lon="11.097675030807917"><ele>50.0</ele><time>2026-04-24T14:21:46.921Z</time></trkpt><trkpt lat="53.76492178093538" lon="11.097691645198065"><ele>50.0</ele><time>2026-04-24T14:21:48.921Z</time></trkpt><trkpt lat="53.765040646698175" lon="11.09770783407302"><ele>50.0</ele><time>2026-04-24T14:21:50.921Z</time></trkpt><trkpt lat="53.76510625733317" lon="11.097715660519864"><ele>50.0</ele><time>2026-04-24T14:21:51.921Z</time></trkpt><trkpt lat="53.765191656991334" lon="11.097693086585322"><ele>50.0</ele><time>2026-04-24T14:21:52.921Z</time></trkpt><trkpt lat="53.76533330433958" lon="11.097736916924509"><ele>50.0</ele><time>2026-04-24T14:21:53.921Z</time></trkpt><trkpt lat="53.7654528343909" lon="11.097673593740069"><ele>49.4</ele><time>2026-04-24T14:21:54.921Z</time></trkpt><trkpt lat="53.76552961370349" lon="11.097472300325675"><ele>48.8</ele><time>2026-04-24T14:21:55.921Z</time></trkpt><trkpt lat="53.76551072502075" lon="11.097287616892856"><ele>48.2</ele><time>2026-04-24T14:21:56.921Z</time></trkpt><trkpt lat="53.76548013947337" lon="11.097135239303789"><ele>47.6</ele><time>2026-04-24T14:21:57.921Z</time></trkpt><trkpt lat="53.76545084978388" lon="11.096989317542937"><ele>47.0</ele><time>2026-04-24T14:21:58.921Z</time></trkpt><trkpt lat="53.76542043175356" lon="11.096837774509616"><ele>47.0</ele><time>2026-04-24T14:21:59.921Z</time></trkpt><trkpt lat="53.765389908475534" lon="11.096687371481474"><ele>47.0</ele><time>2026-04-24T14:22:00.921Z</time></trkpt><trkpt lat="53.76535867789542" lon="11.096535717705565"><ele>47.0</ele><time>2026-04-24T14:22:01.921Z</time></trkpt><trkpt lat="53.76531548643752" lon="11.096397792699085"><ele>47.0</ele><time>2026-04-24T14:22:02.921Z</time></trkpt><trkpt lat="53.76522580627748" lon="11.096357297436292"><ele>47.0</ele><time>2026-04-24T14:22:03.921Z</time></trkpt><trkpt lat="53.76514543663381" lon="11.096331983098086"><ele>47.400000000000006</ele><time>2026-04-24T14:22:04.921Z</time></trkpt><trkpt lat="53.765054353457" lon="11.096325956215011"><ele>47.800000000000004</ele><time>2026-04-24T14:22:05.921Z</time></trkpt><trkpt lat="53.7649489699858" lon="11.096302476552408"><ele>48.2</ele><time>2026-04-24T14:22:06.921Z</time></trkpt><trkpt lat="53.764839209233884" lon="11.096287917930315"><ele>48.6</ele><time>2026-04-24T14:22:07.921Z</time></trkpt><trkpt lat="53.764740606489525" lon="11.096271214089134"><ele>49.0</ele><time>2026-04-24T14:22:08.921Z</time></trkpt><trkpt lat="53.76466351351599" lon="11.096248619869424"><ele>48.99999999999999</ele><time>2026-04-24T14:22:09.921Z</time></trkpt><trkpt lat="53.76459832712174" lon="11.096186260409226"><ele>49.0</ele><time>2026-04-24T14:22:11.921Z</time></trkpt><trkpt lat="53.76455947178806" lon="11.096098126398882"><ele>49.0</ele><time>2026-04-24T14:22:13.921Z</time></trkpt><trkpt lat="53.764630808699785" lon="11.096017170625958"><ele>49.0</ele><time>2026-04-24T14:22:15.921Z</time></trkpt><trkpt lat="53.76473831471066" lon="11.095894654287093"><ele>48.99999999999999</ele><time>2026-04-24T14:22:17.921Z</time></trkpt><trkpt lat="53.764805720724496" lon="11.095817890635942"><ele>49.0</ele><time>2026-04-24T14:22:18.921Z</time></trkpt><trkpt lat="53.7648865507672" lon="11.09572583936155"><ele>48.6</ele><time>2026-04-24T14:22:19.921Z</time></trkpt><trkpt lat="53.76497464043638" lon="11.09562552064731"><ele>48.2</ele><time>2026-04-24T14:22:20.921Z</time></trkpt><trkpt lat="53.765062994732716" lon="11.095524194805186"><ele>47.800000000000004</ele><time>2026-04-24T14:22:21.921Z</time></trkpt><trkpt lat="53.76514949036266" lon="11.095422893355217"><ele>47.400000000000006</ele><time>2026-04-24T14:22:22.921Z</time></trkpt><trkpt lat="53.765224200753195" lon="11.095334162741535"><ele>47.0</ele><time>2026-04-24T14:22:23.921Z</time></trkpt><trkpt lat="53.76528088128786" lon="11.095266846112954"><ele>46.8</ele><time>2026-04-24T14:22:24.921Z</time></trkpt><trkpt lat="53.765323835595474" lon="11.095175258886071"><ele>46.6</ele><time>2026-04-24T14:22:26.921Z</time></trkpt><trkpt lat="53.76546587927802" lon="11.095125838621854"><ele>46.4</ele><time>2026-04-24T14:22:27.921Z</time></trkpt><trkpt lat="53.765481928048" lon="11.09523767790986"><ele>46.199999999999996</ele><time>2026-04-24T14:22:28.921Z</time></trkpt><trkpt lat="53.76552893421858" lon="11.095421713012136"><ele>46.0</ele><time>2026-04-24T14:22:29.921Z</time></trkpt><trkpt lat="53.765587906333515" lon="11.095622497350668"><ele>46.333333333333336</ele><time>2026-04-24T14:22:30.921Z</time></trkpt><trkpt lat="53.765651695579166" lon="11.095837860403925"><ele>46.666666666666664</ele><time>2026-04-24T14:22:31.921Z</time></trkpt><trkpt lat="53.7657203432434" lon="11.096069628934305"><ele>47.0</ele><time>2026-04-24T14:22:32.921Z</time></trkpt><trkpt lat="53.76579298083103" lon="11.096315042749051"><ele>47.0</ele><time>2026-04-24T14:22:33.921Z</time></trkpt><trkpt lat="53.7658680377841" lon="11.096568670738986"><ele>47.0</ele><time>2026-04-24T14:22:34.921Z</time></trkpt><trkpt lat="53.76595428139126" lon="11.096859845950162"><ele>47.0</ele><time>2026-04-24T14:22:35.921Z</time></trkpt><trkpt lat="53.76604370614519" lon="11.09716482695739"><ele>46.0</ele><time>2026-04-24T14:22:36.921Z</time></trkpt><trkpt lat="53.76616095549829" lon="11.097524479901207"><ele>45.0</ele><time>2026-04-24T14:22:37.921Z</time></trkpt><trkpt lat="53.76630372341503" lon="11.097789265694225"><ele>45.0</ele><time>2026-04-24T14:22:38.921Z</time></trkpt><trkpt lat="53.766443596487676" lon="11.098063502595041"><ele>45.0</ele><time>2026-04-24T14:22:39.921Z</time></trkpt><trkpt lat="53.76663108796485" lon="11.098232814599013"><ele>45.0</ele><time>2026-04-24T14:22:40.921Z</time></trkpt><trkpt lat="53.766802580861906" lon="11.098378899588619"><ele>44.666666666666664</ele><time>2026-04-24T14:22:41.921Z</time></trkpt><trkpt lat="53.7669785173488" lon="11.098491644867691"><ele>44.33333333333333</ele><time>2026-04-24T14:22:42.921Z</time></trkpt><trkpt lat="53.76717034972904" lon="11.098584112092622"><ele>44.0</ele><time>2026-04-24T14:22:43.921Z</time></trkpt><trkpt lat="53.76734287508647" lon="11.098701058138044"><ele>44.0</ele><time>2026-04-24T14:22:44.921Z</time></trkpt><trkpt lat="53.767521715354576" lon="11.09885691629093"><ele>44.0</ele><time>2026-04-24T14:22:45.921Z</time></trkpt><trkpt lat="53.76769643484136" lon="11.098996283256541"><ele>44.0</ele><time>2026-04-24T14:22:46.921Z</time></trkpt><trkpt lat="53.76785100310044" lon="11.099182938889799"><ele>43.33333333333333</ele><time>2026-04-24T14:22:47.921Z</time></trkpt><trkpt lat="53.76799353301908" lon="11.099409964987755"><ele>42.666666666666664</ele><time>2026-04-24T14:22:48.921Z</time></trkpt><trkpt lat="53.76814770815402" lon="11.099617719080168"><ele>42.0</ele><time>2026-04-24T14:22:49.921Z</time></trkpt><trkpt lat="53.76830421247917" lon="11.099808674998608"><ele>41.0</ele><time>2026-04-24T14:22:50.921Z</time></trkpt><trkpt lat="53.76844432650537" lon="11.100036534054851"><ele>40.0</ele><time>2026-04-24T14:22:51.921Z</time></trkpt><trkpt lat="53.76859429917955" lon="11.100248489678336"><ele>39.0</ele><time>2026-04-24T14:22:52.921Z</time></trkpt><trkpt lat="53.768739238262995" lon="11.100472454485995"><ele>40.0</ele><time>2026-04-24T14:22:53.921Z</time></trkpt><trkpt lat="53.76888099001995" lon="11.10067507045326"><ele>41.0</ele><time>2026-04-24T14:22:54.921Z</time></trkpt><trkpt lat="53.769023460541256" lon="11.100877207624208"><ele>42.0</ele><time>2026-04-24T14:22:55.921Z</time></trkpt><trkpt lat="53.76916991018236" lon="11.10109015759131"><ele>42.0</ele><time>2026-04-24T14:22:56.921Z</time></trkpt><trkpt lat="53.76930063269929" lon="11.101301193392354"><ele>42.0</ele><time>2026-04-24T14:22:57.921Z</time></trkpt><trkpt lat="53.76943470591498" lon="11.101529626037498"><ele>42.0</ele><time>2026-04-24T14:22:58.921Z</time></trkpt><trkpt lat="53.76956521895398" lon="11.101768336169876"><ele>42.666666666666664</ele><time>2026-04-24T14:22:59.921Z</time></trkpt><trkpt lat="53.76968804079442" lon="11.101999564270564"><ele>43.33333333333333</ele><time>2026-04-24T14:23:00.921Z</time></trkpt><trkpt lat="53.76981191593171" lon="11.102227093840408"><ele>44.0</ele><time>2026-04-24T14:23:01.921Z</time></trkpt><trkpt lat="53.76993785038141" lon="11.102473319136248"><ele>44.0</ele><time>2026-04-24T14:23:02.921Z</time></trkpt><trkpt lat="53.770085558704196" lon="11.102701977280551"><ele>44.0</ele><time>2026-04-24T14:23:03.921Z</time></trkpt><trkpt lat="53.77024911499211" lon="11.102889564443382"><ele>44.0</ele><time>2026-04-24T14:23:04.921Z</time></trkpt><trkpt lat="53.770408781558906" lon="11.103039170749293"><ele>44.666666666666664</ele><time>2026-04-24T14:23:05.921Z</time></trkpt><trkpt lat="53.77057250684495" lon="11.103208253692047"><ele>45.333333333333336</ele><time>2026-04-24T14:23:06.922Z</time></trkpt><trkpt lat="53.7707338387911" lon="11.103371520352226"><ele>46.0</ele><time>2026-04-24T14:23:07.922Z</time></trkpt><trkpt lat="53.77088069323163" lon="11.103551066973266"><ele>49.0</ele><time>2026-04-24T14:23:08.922Z</time></trkpt><trkpt lat="53.77103265962694" lon="11.10372454111915"><ele>52.0</ele><time>2026-04-24T14:23:09.922Z</time></trkpt><trkpt lat="53.77119154184219" lon="11.103872524400233"><ele>55.0</ele><time>2026-04-24T14:23:10.922Z</time></trkpt><trkpt lat="53.77134621735043" lon="11.10404099528191"><ele>54.33333333333333</ele><time>2026-04-24T14:23:11.922Z</time></trkpt><trkpt lat="53.77149236143663" lon="11.104223773898836"><ele>53.66666666666667</ele><time>2026-04-24T14:23:12.922Z</time></trkpt><trkpt lat="53.771636204720615" lon="11.104378483174873"><ele>53.0</ele><time>2026-04-24T14:23:13.922Z</time></trkpt><trkpt lat="53.77178539563926" lon="11.104535884392156"><ele>54.66666666666667</ele><time>2026-04-24T14:23:14.922Z</time></trkpt><trkpt lat="53.77193099302764" lon="11.104693113521748"><ele>56.33333333333333</ele><time>2026-04-24T14:23:15.922Z</time></trkpt><trkpt lat="53.77207311332823" lon="11.104852346675141"><ele>58.0</ele><time>2026-04-24T14:23:16.922Z</time></trkpt><trkpt lat="53.7722190332881" lon="11.105014811775922"><ele>58.33333333333333</ele><time>2026-04-24T14:23:17.922Z</time></trkpt><trkpt lat="53.77237022165878" lon="11.105168033328091"><ele>58.66666666666667</ele><time>2026-04-24T14:23:18.922Z</time></trkpt><trkpt lat="53.772506382039396" lon="11.105345779394629"><ele>59.0</ele><time>2026-04-24T14:23:19.922Z</time></trkpt><trkpt lat="53.77265177469953" lon="11.105478937749313"><ele>58.75</ele><time>2026-04-24T14:23:20.922Z</time></trkpt><trkpt lat="53.772772346802284" lon="11.105635081778528"><ele>58.5</ele><time>2026-04-24T14:23:21.922Z</time></trkpt><trkpt lat="53.772881065359165" lon="11.105756037035045"><ele>58.25</ele><time>2026-04-24T14:23:22.922Z</time></trkpt><trkpt lat="53.77295379620834" lon="11.105836953904394"><ele>58.0</ele><time>2026-04-24T14:23:23.922Z</time></trkpt><trkpt lat="53.77302611463302" lon="11.105917411895753"><ele>58.0</ele><time>2026-04-24T14:23:25.922Z</time></trkpt><trkpt lat="53.77308848547338" lon="11.105986802710193"><ele>58.0</ele><time>2026-04-24T14:23:27.922Z</time></trkpt><trkpt lat="53.77318555838942" lon="11.106094801508208"><ele>58.0</ele><time>2026-04-24T14:23:30.922Z</time></trkpt><trkpt lat="53.77330360787667" lon="11.106202130851699"><ele>58.0</ele><time>2026-04-24T14:23:32.922Z</time></trkpt><trkpt lat="53.77337806605384" lon="11.106308109465969"><ele>58.0</ele><time>2026-04-24T14:23:33.922Z</time></trkpt><trkpt lat="53.773477099169334" lon="11.106412703891934"><ele>58.25</ele><time>2026-04-24T14:23:34.922Z</time></trkpt><trkpt lat="53.77357701293778" lon="11.106518389822018"><ele>58.5</ele><time>2026-04-24T14:23:35.922Z</time></trkpt><trkpt lat="53.77369467587856" lon="11.106644226962283"><ele>58.75</ele><time>2026-04-24T14:23:36.922Z</time></trkpt><trkpt lat="53.773817757932676" lon="11.10676484458614"><ele>59.0</ele><time>2026-04-24T14:23:37.922Z</time></trkpt><trkpt lat="53.77391728694396" lon="11.106902658597894"><ele>59.0</ele><time>2026-04-24T14:23:38.922Z</time></trkpt><trkpt lat="53.774027568321905" lon="11.10705243999115"><ele>59.0</ele><time>2026-04-24T14:23:39.922Z</time></trkpt><trkpt lat="53.77413431585395" lon="11.107225900578133"><ele>59.0</ele><time>2026-04-24T14:23:40.922Z</time></trkpt><trkpt lat="53.774219056219636" lon="11.107433638504054"><ele>59.0</ele><time>2026-04-24T14:23:41.922Z</time></trkpt><trkpt lat="53.774307901492264" lon="11.107710968077557"><ele>58.0</ele><time>2026-04-24T14:23:42.922Z</time></trkpt><trkpt lat="53.77434278536032" lon="11.107938855265639"><ele>57.0</ele><time>2026-04-24T14:23:43.922Z</time></trkpt><trkpt lat="53.77436716129399" lon="11.10821483891019"><ele>56.0</ele><time>2026-04-24T14:23:44.922Z</time></trkpt><trkpt lat="53.77438651676341" lon="11.108516770686665"><ele>56.0</ele><time>2026-04-24T14:23:45.922Z</time></trkpt><trkpt lat="53.77440517666427" lon="11.10883165470952"><ele>56.0</ele><time>2026-04-24T14:23:46.922Z</time></trkpt><trkpt lat="53.77442520070957" lon="11.109169558551875"><ele>56.0</ele><time>2026-04-24T14:23:47.922Z</time></trkpt><trkpt lat="53.77444485556786" lon="11.109501232636706"><ele>56.0</ele><time>2026-04-24T14:23:48.922Z</time></trkpt><trkpt lat="53.77446349524808" lon="11.109815775376793"><ele>56.0</ele><time>2026-04-24T14:23:49.922Z</time></trkpt><trkpt lat="53.774481131227155" lon="11.110101553919288"><ele>56.0</ele><time>2026-04-24T14:23:50.922Z</time></trkpt><trkpt lat="53.77450020324032" lon="11.110407410986737"><ele>55.66666666666667</ele><time>2026-04-24T14:23:51.922Z</time></trkpt><trkpt lat="53.77451572220341" lon="11.110684130794485"><ele>55.33333333333333</ele><time>2026-04-24T14:23:52.922Z</time></trkpt><trkpt lat="53.774532966871284" lon="11.11099500080088"><ele>55.0</ele><time>2026-04-24T14:23:53.922Z</time></trkpt><trkpt lat="53.7745504026054" lon="11.111268462024372"><ele>53.666666666666664</ele><time>2026-04-24T14:23:54.922Z</time></trkpt><trkpt lat="53.77457045101774" lon="11.11158290002197"><ele>52.33333333333333</ele><time>2026-04-24T14:23:55.922Z</time></trkpt><trkpt lat="53.77458945977802" lon="11.11188397374955"><ele>51.0</ele><time>2026-04-24T14:23:56.922Z</time></trkpt><trkpt lat="53.774607068379716" lon="11.112174765935492"><ele>50.33333333333333</ele><time>2026-04-24T14:23:57.922Z</time></trkpt><trkpt lat="53.774625203539706" lon="11.11247425427885"><ele>49.666666666666664</ele><time>2026-04-24T14:23:58.922Z</time></trkpt><trkpt lat="53.77463945933202" lon="11.112730600617077"><ele>49.0</ele><time>2026-04-24T14:23:59.922Z</time></trkpt><trkpt lat="53.774653799789505" lon="11.112995324576287"><ele>48.666666666666664</ele><time>2026-04-24T14:24:00.922Z</time></trkpt><trkpt lat="53.77467516581107" lon="11.113284356375015"><ele>48.33333333333333</ele><time>2026-04-24T14:24:01.922Z</time></trkpt><trkpt lat="53.77471849139193" lon="11.113569323357549"><ele>48.0</ele><time>2026-04-24T14:24:02.922Z</time></trkpt><trkpt lat="53.774784659641995" lon="11.11387344070587"><ele>47.666666666666664</ele><time>2026-04-24T14:24:03.922Z</time></trkpt><trkpt lat="53.77488517829425" lon="11.11411767679815"><ele>47.33333333333333</ele><time>2026-04-24T14:24:04.922Z</time></trkpt><trkpt lat="53.77492543714595" lon="11.114426311203424"><ele>47.0</ele><time>2026-04-24T14:24:05.922Z</time></trkpt><trkpt lat="53.77503341860477" lon="11.114641006886425"><ele>47.0</ele><time>2026-04-24T14:24:06.922Z</time></trkpt><trkpt lat="53.77514748723617" lon="11.114873453088698"><ele>47.0</ele><time>2026-04-24T14:24:07.922Z</time></trkpt><trkpt lat="53.77526403237184" lon="11.115143883384109"><ele>47.0</ele><time>2026-04-24T14:24:08.922Z</time></trkpt><trkpt lat="53.77541096164323" lon="11.11537844131435"><ele>48.33333333333333</ele><time>2026-04-24T14:24:09.922Z</time></trkpt><trkpt lat="53.77551793166664" lon="11.115637620016859"><ele>49.666666666666664</ele><time>2026-04-24T14:24:10.922Z</time></trkpt><trkpt lat="53.775629350476414" lon="11.11591525406193"><ele>51.0</ele><time>2026-04-24T14:24:11.922Z</time></trkpt><trkpt lat="53.77573420684828" lon="11.11621276604607"><ele>51.66666666666667</ele><time>2026-04-24T14:24:12.922Z</time></trkpt><trkpt lat="53.77588501361461" lon="11.116441317729938"><ele>52.333333333333336</ele><time>2026-04-24T14:24:13.922Z</time></trkpt><trkpt lat="53.775999704730665" lon="11.11671218987693"><ele>53.0</ele><time>2026-04-24T14:24:14.922Z</time></trkpt><trkpt lat="53.77612556544381" lon="11.116979191006221"><ele>53.333333333333336</ele><time>2026-04-24T14:24:15.922Z</time></trkpt><trkpt lat="53.7762309346513" lon="11.11725317417454"><ele>53.66666666666667</ele><time>2026-04-24T14:24:16.922Z</time></trkpt><trkpt lat="53.77634320882462" lon="11.11750277450202"><ele>54.0</ele><time>2026-04-24T14:24:17.922Z</time></trkpt><trkpt lat="53.776438833391865" lon="11.117781764617838"><ele>54.33333333333333</ele><time>2026-04-24T14:24:18.922Z</time></trkpt><trkpt lat="53.776538533271435" lon="11.118036573159497"><ele>54.666666666666664</ele><time>2026-04-24T14:24:19.922Z</time></trkpt><trkpt lat="53.7766233492421" lon="11.118317142824317"><ele>55.0</ele><time>2026-04-24T14:24:20.922Z</time></trkpt><trkpt lat="53.77667555985854" lon="11.1185939852259"><ele>54.0</ele><time>2026-04-24T14:24:21.922Z</time></trkpt><trkpt lat="53.77667903403385" lon="11.118889458346775"><ele>53.0</ele><time>2026-04-24T14:24:22.922Z</time></trkpt><trkpt lat="53.77667948969363" lon="11.119185401505794"><ele>52.0</ele><time>2026-04-24T14:24:23.922Z</time></trkpt><trkpt lat="53.77667811385176" lon="11.1195169160104"><ele>51.666666666666664</ele><time>2026-04-24T14:24:24.922Z</time></trkpt><trkpt lat="53.77667615452398" lon="11.119855126431776"><ele>51.33333333333333</ele><time>2026-04-24T14:24:25.922Z</time></trkpt><trkpt lat="53.77667438209536" lon="11.120200372517683"><ele>51.0</ele><time>2026-04-24T14:24:26.922Z</time></trkpt><trkpt lat="53.77667438209529" lon="11.12054097472682"><ele>51.0</ele><time>2026-04-24T14:24:27.922Z</time></trkpt><trkpt lat="53.776673020833485" lon="11.120905959715282"><ele>51.0</ele><time>2026-04-24T14:24:28.922Z</time></trkpt><trkpt lat="53.77667188879053" lon="11.121238911214883"><ele>51.0</ele><time>2026-04-24T14:24:29.922Z</time></trkpt><trkpt lat="53.776671311140795" lon="11.121604947601005"><ele>51.0</ele><time>2026-04-24T14:24:30.922Z</time></trkpt><trkpt lat="53.77667075012368" lon="11.12196044415772"><ele>51.0</ele><time>2026-04-24T14:24:31.922Z</time></trkpt><trkpt lat="53.77667012695704" lon="11.122282281085887"><ele>51.0</ele><time>2026-04-24T14:24:32.922Z</time></trkpt><trkpt lat="53.77666923811983" lon="11.122623123858968"><ele>50.33333333333333</ele><time>2026-04-24T14:24:33.922Z</time></trkpt><trkpt lat="53.77666838982735" lon="11.122948417480123"><ele>49.666666666666664</ele><time>2026-04-24T14:24:34.922Z</time></trkpt><trkpt lat="53.77666751964821" lon="11.123282104865813"><ele>49.0</ele><time>2026-04-24T14:24:35.922Z</time></trkpt><trkpt lat="53.776666693823245" lon="11.123598782730982"><ele>48.666666666666664</ele><time>2026-04-24T14:24:36.922Z</time></trkpt><trkpt lat="53.7766655818558" lon="11.123929579888514"><ele>48.33333333333333</ele><time>2026-04-24T14:24:37.922Z</time></trkpt><trkpt lat="53.776665074508756" lon="11.124254117251914"><ele>48.0</ele><time>2026-04-24T14:24:38.922Z</time></trkpt><trkpt lat="53.77666560548053" lon="11.124590942787608"><ele>48.0</ele><time>2026-04-24T14:24:39.922Z</time></trkpt><trkpt lat="53.7766691593477" lon="11.124924711569774"><ele>48.0</ele><time>2026-04-24T14:24:40.922Z</time></trkpt><trkpt lat="53.77667798817561" lon="11.12525159270215"><ele>48.0</ele><time>2026-04-24T14:24:41.922Z</time></trkpt><trkpt lat="53.7767072861758" lon="11.125557328310585"><ele>48.0</ele><time>2026-04-24T14:24:42.922Z</time></trkpt><trkpt lat="53.77675108732017" lon="11.12574487101565"><ele>48.0</ele><time>2026-04-24T14:24:43.922Z</time></trkpt><trkpt lat="53.77684383464523" lon="11.125929435736452"><ele>48.0</ele><time>2026-04-24T14:24:44.922Z</time></trkpt><trkpt lat="53.77696595726205" lon="11.126091106102537"><ele>48.0</ele><time>2026-04-24T14:24:45.922Z</time></trkpt><trkpt lat="53.77712329641847" lon="11.126126851039745"><ele>48.0</ele><time>2026-04-24T14:24:46.922Z</time></trkpt><trkpt lat="53.77727256004715" lon="11.126144827343353"><ele>48.0</ele><time>2026-04-24T14:24:47.922Z</time></trkpt><trkpt lat="53.777419458229076" lon="11.126122041299505"><ele>48.0</ele><time>2026-04-24T14:24:48.922Z</time></trkpt><trkpt lat="53.77758149805045" lon="11.12612502964921"><ele>48.33333333333333</ele><time>2026-04-24T14:24:49.922Z</time></trkpt><trkpt lat="53.77774115918847" lon="11.126143761783705"><ele>48.666666666666664</ele><time>2026-04-24T14:24:50.922Z</time></trkpt><trkpt lat="53.7779090994543" lon="11.126171563047878"><ele>49.0</ele><time>2026-04-24T14:24:51.922Z</time></trkpt><trkpt lat="53.778073443013184" lon="11.126158034692788"><ele>49.0</ele><time>2026-04-24T14:24:52.922Z</time></trkpt><trkpt lat="53.77823645127135" lon="11.12614763109903"><ele>49.0</ele><time>2026-04-24T14:24:53.922Z</time></trkpt><trkpt lat="53.77841940959914" lon="11.12617641019757"><ele>49.0</ele><time>2026-04-24T14:24:54.921Z</time></trkpt><trkpt lat="53.778590096049825" lon="11.126196901826738"><ele>49.33333333333333</ele><time>2026-04-24T14:24:55.921Z</time></trkpt><trkpt lat="53.778781848747876" lon="11.126256182648943"><ele>49.66666666666667</ele><time>2026-04-24T14:24:56.921Z</time></trkpt><trkpt lat="53.778961866234695" lon="11.126339939525737"><ele>50.0</ele><time>2026-04-24T14:24:57.921Z</time></trkpt><trkpt lat="53.77914084824391" lon="11.12645022841331"><ele>50.333333333333336</ele><time>2026-04-24T14:24:58.921Z</time></trkpt><trkpt lat="53.77930771938226" lon="11.126613085552247"><ele>50.66666666666667</ele><time>2026-04-24T14:24:59.921Z</time></trkpt><trkpt lat="53.77945938060973" lon="11.126769958513671"><ele>51.0</ele><time>2026-04-24T14:25:00.921Z</time></trkpt><trkpt lat="53.7796246720423" lon="11.126958717053416"><ele>51.0</ele><time>2026-04-24T14:25:01.921Z</time></trkpt><trkpt lat="53.77977746000845" lon="11.127127912776162"><ele>51.0</ele><time>2026-04-24T14:25:02.921Z</time></trkpt><trkpt lat="53.77990858381928" lon="11.127329315554137"><ele>51.0</ele><time>2026-04-24T14:25:03.921Z</time></trkpt><trkpt lat="53.78005424024745" lon="11.127497267913588"><ele>51.0</ele><time>2026-04-24T14:25:04.921Z</time></trkpt><trkpt lat="53.78020586759035" lon="11.127701456301578"><ele>51.0</ele><time>2026-04-24T14:25:05.921Z</time></trkpt><trkpt lat="53.780354885008634" lon="11.127901765062868"><ele>51.0</ele><time>2026-04-24T14:25:06.921Z</time></trkpt><trkpt lat="53.7804992943443" lon="11.12809580388819"><ele>51.33333333333333</ele><time>2026-04-24T14:25:07.921Z</time></trkpt><trkpt lat="53.780666110878265" lon="11.128267719666491"><ele>51.666666666666664</ele><time>2026-04-24T14:25:08.921Z</time></trkpt><trkpt lat="53.78083605296486" lon="11.128465549330155"><ele>52.0</ele><time>2026-04-24T14:25:09.921Z</time></trkpt><trkpt lat="53.781005209102474" lon="11.128611838723078"><ele>52.0</ele><time>2026-04-24T14:25:10.921Z</time></trkpt><trkpt lat="53.78117552520268" lon="11.128747600428902"><ele>52.0</ele><time>2026-04-24T14:25:11.921Z</time></trkpt><trkpt lat="53.78134836179132" lon="11.128867354148689"><ele>52.0</ele><time>2026-04-24T14:25:12.921Z</time></trkpt><trkpt lat="53.78152015532021" lon="11.128966382930988"><ele>52.0</ele><time>2026-04-24T14:25:13.921Z</time></trkpt><trkpt lat="53.78168740715123" lon="11.129102697973115"><ele>52.0</ele><time>2026-04-24T14:25:14.921Z</time></trkpt><trkpt lat="53.78184935054633" lon="11.129252515969945"><ele>52.0</ele><time>2026-04-24T14:25:15.921Z</time></trkpt><trkpt lat="53.78200977514401" lon="11.129406202447962"><ele>52.0</ele><time>2026-04-24T14:25:16.921Z</time></trkpt><trkpt lat="53.78216740161743" lon="11.129557813916183"><ele>52.0</ele><time>2026-04-24T14:25:17.921Z</time></trkpt><trkpt lat="53.782334273489525" lon="11.129713167262414"><ele>52.0</ele><time>2026-04-24T14:25:18.921Z</time></trkpt><trkpt lat="53.78248323182739" lon="11.129910993444064"><ele>52.0</ele><time>2026-04-24T14:25:19.921Z</time></trkpt><trkpt lat="53.78265589560308" lon="11.130083929459804"><ele>52.0</ele><time>2026-04-24T14:25:20.921Z</time></trkpt><trkpt lat="53.78282423172013" lon="11.130235481862151"><ele>52.0</ele><time>2026-04-24T14:25:21.921Z</time></trkpt><trkpt lat="53.78299026902933" lon="11.130387619768694"><ele>52.0</ele><time>2026-04-24T14:25:22.921Z</time></trkpt><trkpt lat="53.783152342953656" lon="11.13053703587672"><ele>52.0</ele><time>2026-04-24T14:25:23.921Z</time></trkpt><trkpt lat="53.78332652056853" lon="11.130640188607774"><ele>52.0</ele><time>2026-04-24T14:25:24.921Z</time></trkpt><trkpt lat="53.7835075641337" lon="11.130711834413189"><ele>53.0</ele><time>2026-04-24T14:25:25.921Z</time></trkpt><trkpt lat="53.783680756349966" lon="11.130737987608876"><ele>54.0</ele><time>2026-04-24T14:25:26.921Z</time></trkpt><trkpt lat="53.78386519230368" lon="11.130736211646214"><ele>55.0</ele><time>2026-04-24T14:25:27.921Z</time></trkpt><trkpt lat="53.78404899404853" lon="11.130720336263511"><ele>55.0</ele><time>2026-04-24T14:25:28.921Z</time></trkpt><trkpt lat="53.784222182134656" lon="11.13067854189217"><ele>55.0</ele><time>2026-04-24T14:25:29.921Z</time></trkpt><trkpt lat="53.78438533028642" lon="11.130634481366315"><ele>55.0</ele><time>2026-04-24T14:25:30.921Z</time></trkpt><trkpt lat="53.78456917043419" lon="11.130613469215456"><ele>56.0</ele><time>2026-04-24T14:25:31.921Z</time></trkpt><trkpt lat="53.78474469378374" lon="11.130591096107255"><ele>57.0</ele><time>2026-04-24T14:25:32.921Z</time></trkpt><trkpt lat="53.78492114323499" lon="11.13058495501561"><ele>58.0</ele><time>2026-04-24T14:25:33.921Z</time></trkpt><trkpt lat="53.78511286929706" lon="11.130674383292217"><ele>58.666666666666664</ele><time>2026-04-24T14:25:34.921Z</time></trkpt><trkpt lat="53.785293436054744" lon="11.130735062224657"><ele>59.33333333333333</ele><time>2026-04-24T14:25:35.921Z</time></trkpt><trkpt lat="53.78546222921428" lon="11.13074239478982"><ele>60.0</ele><time>2026-04-24T14:25:36.921Z</time></trkpt><trkpt lat="53.78563466627079" lon="11.130811228161177"><ele>60.0</ele><time>2026-04-24T14:25:37.921Z</time></trkpt><trkpt lat="53.785805534805576" lon="11.130882126152846"><ele>60.0</ele><time>2026-04-24T14:25:38.921Z</time></trkpt><trkpt lat="53.785984370330944" lon="11.130939324968887"><ele>60.0</ele><time>2026-04-24T14:25:39.921Z</time></trkpt><trkpt lat="53.786157534552956" lon="11.131063443701342"><ele>60.33333333333333</ele><time>2026-04-24T14:25:40.921Z</time></trkpt><trkpt lat="53.78633698773941" lon="11.131184191480187"><ele>60.666666666666664</ele><time>2026-04-24T14:25:41.921Z</time></trkpt><trkpt lat="53.78650483146427" lon="11.131274263295623"><ele>61.0</ele><time>2026-04-24T14:25:42.921Z</time></trkpt><trkpt lat="53.78666414810709" lon="11.131400930242181"><ele>61.0</ele><time>2026-04-24T14:25:43.921Z</time></trkpt><trkpt lat="53.78679333531453" lon="11.131527195870628"><ele>61.0</ele><time>2026-04-24T14:25:44.921Z</time></trkpt><trkpt lat="53.786934788656836" lon="11.131697285788901"><ele>61.0</ele><time>2026-04-24T14:25:45.921Z</time></trkpt><trkpt lat="53.78708072774573" lon="11.131897590354605"><ele>61.666666666666664</ele><time>2026-04-24T14:25:46.921Z</time></trkpt><trkpt lat="53.787219005116945" lon="11.132095375085894"><ele>62.33333333333333</ele><time>2026-04-24T14:25:47.921Z</time></trkpt><trkpt lat="53.7873677604598" lon="11.13231134011153"><ele>63.0</ele><time>2026-04-24T14:25:48.921Z</time></trkpt><trkpt lat="53.78750471476271" lon="11.132512755854382"><ele>63.0</ele><time>2026-04-24T14:25:49.921Z</time></trkpt><trkpt lat="53.78764353178838" lon="11.132713006897866"><ele>63.0</ele><time>2026-04-24T14:25:50.921Z</time></trkpt><trkpt lat="53.78778520285281" lon="11.132876994621721"><ele>63.0</ele><time>2026-04-24T14:25:51.921Z</time></trkpt><trkpt lat="53.78791764508548" lon="11.133090872891339"><ele>63.33333333333333</ele><time>2026-04-24T14:25:52.921Z</time></trkpt><trkpt lat="53.78804749977175" lon="11.133298748174399"><ele>63.666666666666664</ele><time>2026-04-24T14:25:53.921Z</time></trkpt><trkpt lat="53.78818274926104" lon="11.133487275410957"><ele>64.0</ele><time>2026-04-24T14:25:54.921Z</time></trkpt><trkpt lat="53.7883238729805" lon="11.133652567096078"><ele>64.0</ele><time>2026-04-24T14:25:55.921Z</time></trkpt><trkpt lat="53.788463076580754" lon="11.133879752148534"><ele>64.0</ele><time>2026-04-24T14:25:56.921Z</time></trkpt><trkpt lat="53.788597673914154" lon="11.134049468076443"><ele>64.0</ele><time>2026-04-24T14:25:57.921Z</time></trkpt><trkpt lat="53.78873948199264" lon="11.134232432356253"><ele>64.33333333333333</ele><time>2026-04-24T14:25:58.921Z</time></trkpt><trkpt lat="53.78889257827186" lon="11.134426095017592"><ele>64.66666666666667</ele><time>2026-04-24T14:25:59.921Z</time></trkpt><trkpt lat="53.78903767384945" lon="11.134595282729784"><ele>65.0</ele><time>2026-04-24T14:26:00.921Z</time></trkpt><trkpt lat="53.78919581771312" lon="11.13476913877493"><ele>65.0</ele><time>2026-04-24T14:26:01.921Z</time></trkpt><trkpt lat="53.789359451262996" lon="11.134954424531083"><ele>65.0</ele><time>2026-04-24T14:26:02.921Z</time></trkpt><trkpt lat="53.789508477840144" lon="11.135109371153789"><ele>65.0</ele><time>2026-04-24T14:26:03.921Z</time></trkpt><trkpt lat="53.789668551094415" lon="11.135247750848256"><ele>65.0</ele><time>2026-04-24T14:26:04.921Z</time></trkpt><trkpt lat="53.78982233806139" lon="11.135423727648359"><ele>65.0</ele><time>2026-04-24T14:26:05.921Z</time></trkpt><trkpt lat="53.78999146406157" lon="11.135594114384418"><ele>65.0</ele><time>2026-04-24T14:26:06.921Z</time></trkpt><trkpt lat="53.79016708065709" lon="11.135748223120203"><ele>65.0</ele><time>2026-04-24T14:26:07.921Z</time></trkpt><trkpt lat="53.79033196294198" lon="11.135917523892996"><ele>65.0</ele><time>2026-04-24T14:26:08.921Z</time></trkpt><trkpt lat="53.79049541838738" lon="11.136103256686123"><ele>65.0</ele><time>2026-04-24T14:26:09.921Z</time></trkpt><trkpt lat="53.790669095925885" lon="11.136271671435983"><ele>65.0</ele><time>2026-04-24T14:26:10.921Z</time></trkpt><trkpt lat="53.790837371649815" lon="11.1364560868247"><ele>65.0</ele><time>2026-04-24T14:26:11.921Z</time></trkpt><trkpt lat="53.79100237957048" lon="11.136627022310266"><ele>65.0</ele><time>2026-04-24T14:26:12.921Z</time></trkpt><trkpt lat="53.791171302610195" lon="11.136805259700566"><ele>65.0</ele><time>2026-04-24T14:26:13.921Z</time></trkpt><trkpt lat="53.79133504632346" lon="11.136959021806641"><ele>65.0</ele><time>2026-04-24T14:26:14.921Z</time></trkpt><trkpt lat="53.79149467155599" lon="11.13713664836694"><ele>65.0</ele><time>2026-04-24T14:26:15.921Z</time></trkpt><trkpt lat="53.79165195729131" lon="11.137303089139099"><ele>64.66666666666667</ele><time>2026-04-24T14:26:16.921Z</time></trkpt><trkpt lat="53.79183103531628" lon="11.137446745234278"><ele>64.33333333333333</ele><time>2026-04-24T14:26:17.921Z</time></trkpt><trkpt lat="53.79199429468168" lon="11.137623864744105"><ele>64.0</ele><time>2026-04-24T14:26:18.921Z</time></trkpt><trkpt lat="53.7921451222615" lon="11.137769602720352"><ele>64.66666666666666</ele><time>2026-04-24T14:26:19.921Z</time></trkpt><trkpt lat="53.79229957600367" lon="11.137912937559754"><ele>65.33333333333333</ele><time>2026-04-24T14:26:20.921Z</time></trkpt><trkpt lat="53.79245941778917" lon="11.138057353338757"><ele>66.0</ele><time>2026-04-24T14:26:21.921Z</time></trkpt><trkpt lat="53.79262484206819" lon="11.13818690747733"><ele>65.66666666666667</ele><time>2026-04-24T14:26:22.921Z</time></trkpt><trkpt lat="53.79277878757415" lon="11.138322125562576"><ele>65.33333333333334</ele><time>2026-04-24T14:26:23.921Z</time></trkpt><trkpt lat="53.79293407520808" lon="11.138428801294907"><ele>65.0</ele><time>2026-04-24T14:26:24.921Z</time></trkpt><trkpt lat="53.793082361519645" lon="11.138587253744372"><ele>65.0</ele><time>2026-04-24T14:26:25.921Z</time></trkpt><trkpt lat="53.79323327127434" lon="11.138734630778611"><ele>65.0</ele><time>2026-04-24T14:26:26.921Z</time></trkpt><trkpt lat="53.79340201514898" lon="11.138868590150958"><ele>65.0</ele><time>2026-04-24T14:26:27.921Z</time></trkpt><trkpt lat="53.793567767370995" lon="11.139004273767851"><ele>63.66666666666667</ele><time>2026-04-24T14:26:28.921Z</time></trkpt><trkpt lat="53.79373078900781" lon="11.139094366954467"><ele>62.33333333333333</ele><time>2026-04-24T14:26:29.921Z</time></trkpt><trkpt lat="53.7939026905529" lon="11.139133117275053"><ele>61.0</ele><time>2026-04-24T14:26:30.921Z</time></trkpt><trkpt lat="53.79407263810771" lon="11.139155843676372"><ele>61.0</ele><time>2026-04-24T14:26:31.921Z</time></trkpt><trkpt lat="53.794251973743314" lon="11.139209676931024"><ele>61.0</ele><time>2026-04-24T14:26:32.921Z</time></trkpt><trkpt lat="53.79444308939935" lon="11.139217595180394"><ele>61.0</ele><time>2026-04-24T14:26:33.921Z</time></trkpt><trkpt lat="53.79463340066019" lon="11.139314842562147"><ele>60.666666666666664</ele><time>2026-04-24T14:26:34.921Z</time></trkpt><trkpt lat="53.79481582218374" lon="11.139426350234539"><ele>60.33333333333333</ele><time>2026-04-24T14:26:35.921Z</time></trkpt><trkpt lat="53.794980842223524" lon="11.139568069850586"><ele>60.0</ele><time>2026-04-24T14:26:36.921Z</time></trkpt><trkpt lat="53.795155831446756" lon="11.139680219130764"><ele>60.33333333333333</ele><time>2026-04-24T14:26:37.921Z</time></trkpt><trkpt lat="53.79530784352316" lon="11.13983237972215"><ele>60.666666666666664</ele><time>2026-04-24T14:26:38.921Z</time></trkpt><trkpt lat="53.795485362273865" lon="11.139976555278825"><ele>61.0</ele><time>2026-04-24T14:26:39.921Z</time></trkpt><trkpt lat="53.79565737267241" lon="11.140086176946674"><ele>61.0</ele><time>2026-04-24T14:26:40.922Z</time></trkpt><trkpt lat="53.79582324660506" lon="11.14022772076828"><ele>61.0</ele><time>2026-04-24T14:26:42Z</time></trkpt><trkpt lat="53.7959875900252" lon="11.14038317279734"><ele>61.0</ele><time>2026-04-24T14:26:43Z</time></trkpt><trkpt lat="53.796160209119314" lon="11.140487378508471"><ele>60.33333333333333</ele><time>2026-04-24T14:26:44Z</time></trkpt><trkpt lat="53.796327125417484" lon="11.14065322410237"><ele>59.66666666666667</ele><time>2026-04-24T14:26:45Z</time></trkpt><trkpt lat="53.79650404830248" lon="11.140805054932452"><ele>59.0</ele><time>2026-04-24T14:26:46Z</time></trkpt><trkpt lat="53.796680556196876" lon="11.140944101796894"><ele>58.333333333333336</ele><time>2026-04-24T14:26:47Z</time></trkpt><trkpt lat="53.79685261799543" lon="11.14108305504496"><ele>57.66666666666667</ele><time>2026-04-24T14:26:48Z</time></trkpt><trkpt lat="53.7970291162978" lon="11.141233299201062"><ele>57.0</ele><time>2026-04-24T14:26:49Z</time></trkpt><trkpt lat="53.79720195919204" lon="11.141362633673852"><ele>57.0</ele><time>2026-04-24T14:26:50Z</time></trkpt><trkpt lat="53.797372856256494" lon="11.141518661166458"><ele>57.0</ele><time>2026-04-24T14:26:51Z</time></trkpt><trkpt lat="53.79754503392529" lon="11.14162416264223"><ele>57.0</ele><time>2026-04-24T14:26:52Z</time></trkpt><trkpt lat="53.79770727308891" lon="11.141787613687258"><ele>57.0</ele><time>2026-04-24T14:26:53Z</time></trkpt><trkpt lat="53.79787436376897" lon="11.141951348527776"><ele>57.0</ele><time>2026-04-24T14:26:54Z</time></trkpt><trkpt lat="53.79805107839207" lon="11.142124514017892"><ele>57.0</ele><time>2026-04-24T14:26:55Z</time></trkpt><trkpt lat="53.798226963987545" lon="11.142296303908092"><ele>57.33333333333333</ele><time>2026-04-24T14:26:56Z</time></trkpt><trkpt lat="53.798395174215436" lon="11.14245988653487"><ele>57.666666666666664</ele><time>2026-04-24T14:26:57Z</time></trkpt><trkpt lat="53.79854669096727" lon="11.142606843838136"><ele>58.0</ele><time>2026-04-24T14:26:58Z</time></trkpt><trkpt lat="53.79868290345135" lon="11.14273487430723"><ele>56.33333333333333</ele><time>2026-04-24T14:26:59Z</time></trkpt><trkpt lat="53.798829217443966" lon="11.142869084336251"><ele>54.66666666666667</ele><time>2026-04-24T14:27:00Z</time></trkpt><trkpt lat="53.7989855892756" lon="11.143002801203869"><ele>53.0</ele><time>2026-04-24T14:27:01Z</time></trkpt><trkpt lat="53.79915654106747" lon="11.14312739660998"><ele>53.0</ele><time>2026-04-24T14:27:02Z</time></trkpt><trkpt lat="53.799319523747194" lon="11.143243730192658"><ele>53.0</ele><time>2026-04-24T14:27:03Z</time></trkpt><trkpt lat="53.79949498394649" lon="11.143368969972501"><ele>53.0</ele><time>2026-04-24T14:27:04Z</time></trkpt><trkpt lat="53.79967446182681" lon="11.143496870242958"><ele>53.0</ele><time>2026-04-24T14:27:05Z</time></trkpt><trkpt lat="53.79984591650101" lon="11.143675146715312"><ele>53.0</ele><time>2026-04-24T14:27:06Z</time></trkpt><trkpt lat="53.80003013285522" lon="11.143783248955513"><ele>53.0</ele><time>2026-04-24T14:27:07Z</time></trkpt><trkpt lat="53.80021045703274" lon="11.143917104846839"><ele>52.66666666666667</ele><time>2026-04-24T14:27:08Z</time></trkpt><trkpt lat="53.80039063696076" lon="11.1440226978595"><ele>52.33333333333333</ele><time>2026-04-24T14:27:09.001Z</time></trkpt><trkpt lat="53.8005778055558" lon="11.144140453627532"><ele>52.0</ele><time>2026-04-24T14:27:10.001Z</time></trkpt><trkpt lat="53.80076317393661" lon="11.144243590115243"><ele>52.0</ele><time>2026-04-24T14:27:11.001Z</time></trkpt><trkpt lat="53.800952293031436" lon="11.14439788920102"><ele>52.0</ele><time>2026-04-24T14:27:12.001Z</time></trkpt><trkpt lat="53.80113360050042" lon="11.144563876705702"><ele>52.0</ele><time>2026-04-24T14:27:13.001Z</time></trkpt><trkpt lat="53.80131466063984" lon="11.144719272721503"><ele>51.666666666666664</ele><time>2026-04-24T14:27:14.001Z</time></trkpt><trkpt lat="53.80150956974388" lon="11.144836564202391"><ele>51.33333333333333</ele><time>2026-04-24T14:27:15.001Z</time></trkpt><trkpt lat="53.80168710401924" lon="11.144940356802545"><ele>51.0</ele><time>2026-04-24T14:27:16.001Z</time></trkpt><trkpt lat="53.80186920369417" lon="11.145079690890025"><ele>51.0</ele><time>2026-04-24T14:27:17.001Z</time></trkpt><trkpt lat="53.8020591166217" lon="11.145183280048197"><ele>51.0</ele><time>2026-04-24T14:27:18.001Z</time></trkpt><trkpt lat="53.802224938640364" lon="11.145274596141336"><ele>51.0</ele><time>2026-04-24T14:27:19.001Z</time></trkpt><trkpt lat="53.802413902049466" lon="11.145275902882016"><ele>51.0</ele><time>2026-04-24T14:27:20.001Z</time></trkpt><trkpt lat="53.80261911818119" lon="11.145282728941195"><ele>51.0</ele><time>2026-04-24T14:27:21.001Z</time></trkpt><trkpt lat="53.80281664225588" lon="11.14530283951109"><ele>51.0</ele><time>2026-04-24T14:27:22.001Z</time></trkpt><trkpt lat="53.80300782253037" lon="11.145365530883955"><ele>50.66666666666667</ele><time>2026-04-24T14:27:23.001Z</time></trkpt><trkpt lat="53.8031985950489" lon="11.145406016092693"><ele>50.333333333333336</ele><time>2026-04-24T14:27:24.001Z</time></trkpt><trkpt lat="53.80338764586753" lon="11.145445668163521"><ele>50.0</ele><time>2026-04-24T14:27:25.001Z</time></trkpt><trkpt lat="53.803578682117404" lon="11.145490694876347"><ele>49.66666666666667</ele><time>2026-04-24T14:27:26.001Z</time></trkpt><trkpt lat="53.8037816163707" lon="11.145549045533032"><ele>49.33333333333333</ele><time>2026-04-24T14:27:27.001Z</time></trkpt><trkpt lat="53.803973132648764" lon="11.145627576192727"><ele>49.0</ele><time>2026-04-24T14:27:28.001Z</time></trkpt><trkpt lat="53.80416356127589" lon="11.14565736922811"><ele>48.33333333333333</ele><time>2026-04-24T14:27:29.001Z</time></trkpt><trkpt lat="53.8043357682194" lon="11.145697812159947"><ele>47.666666666666664</ele><time>2026-04-24T14:27:30.001Z</time></trkpt><trkpt lat="53.80451059490412" lon="11.145693003589788"><ele>47.0</ele><time>2026-04-24T14:27:31.001Z</time></trkpt><trkpt lat="53.80469412891545" lon="11.145658045326556"><ele>47.0</ele><time>2026-04-24T14:27:32.001Z</time></trkpt><trkpt lat="53.804838458758" lon="11.145638066700625"><ele>47.0</ele><time>2026-04-24T14:27:33.001Z</time></trkpt><trkpt lat="53.80495682835969" lon="11.145631715498434"><ele>47.0</ele><time>2026-04-24T14:27:34.001Z</time></trkpt><trkpt lat="53.80505461985109" lon="11.1456554615655"><ele>47.0</ele><time>2026-04-24T14:27:35.001Z</time></trkpt><trkpt lat="53.80512343116845" lon="11.145675726401683"><ele>47.0</ele><time>2026-04-24T14:27:36.001Z</time></trkpt><trkpt lat="53.80516419422637" lon="11.145587953529269"><ele>46.400000000000006</ele><time>2026-04-24T14:27:37.001Z</time></trkpt><trkpt lat="53.80526111896847" lon="11.145481680164767"><ele>45.800000000000004</ele><time>2026-04-24T14:27:40.001Z</time></trkpt><trkpt lat="53.805309253250066" lon="11.145361215841781"><ele>45.2</ele><time>2026-04-24T14:27:41.001Z</time></trkpt><trkpt lat="53.805324269049414" lon="11.145213351975508"><ele>44.6</ele><time>2026-04-24T14:27:42.001Z</time></trkpt><trkpt lat="53.80532365902511" lon="11.145036808619224"><ele>44.0</ele><time>2026-04-24T14:27:43.001Z</time></trkpt><trkpt lat="53.805319233570096" lon="11.14482832947783"><ele>44.0</ele><time>2026-04-24T14:27:44.001Z</time></trkpt><trkpt lat="53.80532375511034" lon="11.144617618100906"><ele>44.0</ele><time>2026-04-24T14:27:45.001Z</time></trkpt><trkpt lat="53.80535749297664" lon="11.144404399533201"><ele>44.0</ele><time>2026-04-24T14:27:46.001Z</time></trkpt><trkpt lat="53.80535666893182" lon="11.144230344131266"><ele>44.0</ele><time>2026-04-24T14:27:47.001Z</time></trkpt><trkpt lat="53.805403472115145" lon="11.144083495878142"><ele>43.75</ele><time>2026-04-24T14:27:48.001Z</time></trkpt><trkpt lat="53.80547005701578" lon="11.143986832212134"><ele>43.5</ele><time>2026-04-24T14:27:49.001Z</time></trkpt><trkpt lat="53.80558191000171" lon="11.143898048760306"><ele>43.25</ele><time>2026-04-24T14:27:50.001Z</time></trkpt><trkpt lat="53.80569576779198" lon="11.143754207735489"><ele>43.0</ele><time>2026-04-24T14:27:51.001Z</time></trkpt><trkpt lat="53.80580218495225" lon="11.143580436434535"><ele>43.0</ele><time>2026-04-24T14:27:52.001Z</time></trkpt><trkpt lat="53.80591139637719" lon="11.143388628307521"><ele>43.0</ele><time>2026-04-24T14:27:53.001Z</time></trkpt><trkpt lat="53.806019789925834" lon="11.143196730185112"><ele>43.0</ele><time>2026-04-24T14:27:54.001Z</time></trkpt><trkpt lat="53.80612443589403" lon="11.143016110982057"><ele>43.0</ele><time>2026-04-24T14:27:55.001Z</time></trkpt><trkpt lat="53.806227437264425" lon="11.142838292209543"><ele>43.0</ele><time>2026-04-24T14:27:56.001Z</time></trkpt><trkpt lat="53.806337284687395" lon="11.142648654633566"><ele>43.0</ele><time>2026-04-24T14:27:57.001Z</time></trkpt><trkpt lat="53.806389143658045" lon="11.142352940958949"><ele>43.66666666666667</ele><time>2026-04-24T14:27:58.001Z</time></trkpt><trkpt lat="53.8065098275548" lon="11.142176533593851"><ele>44.333333333333336</ele><time>2026-04-24T14:27:59.001Z</time></trkpt><trkpt lat="53.80662038699211" lon="11.141968244380497"><ele>45.0</ele><time>2026-04-24T14:28:00.001Z</time></trkpt><trkpt lat="53.80672732523898" lon="11.141743238941528"><ele>43.666666666666664</ele><time>2026-04-24T14:28:01.001Z</time></trkpt><trkpt lat="53.80683841896188" lon="11.141534981618687"><ele>42.33333333333333</ele><time>2026-04-24T14:28:02.001Z</time></trkpt><trkpt lat="53.806944124372826" lon="11.141325054717253"><ele>41.0</ele><time>2026-04-24T14:28:03.001Z</time></trkpt><trkpt lat="53.807057684375856" lon="11.141103121399782"><ele>41.0</ele><time>2026-04-24T14:28:04.001Z</time></trkpt><trkpt lat="53.807175637007965" lon="11.140874185839898"><ele>41.0</ele><time>2026-04-24T14:28:05.001Z</time></trkpt><trkpt lat="53.807299520300106" lon="11.140643998381547"><ele>41.0</ele><time>2026-04-24T14:28:06.001Z</time></trkpt><trkpt lat="53.807425462376614" lon="11.140417789130279"><ele>40.666666666666664</ele><time>2026-04-24T14:28:07.001Z</time></trkpt><trkpt lat="53.80755434214292" lon="11.140196238966155"><ele>40.333333333333336</ele><time>2026-04-24T14:28:08.001Z</time></trkpt><trkpt lat="53.80767828454627" lon="11.13996729572007"><ele>40.0</ele><time>2026-04-24T14:28:09.001Z</time></trkpt><trkpt lat="53.80780676187399" lon="11.139740236951768"><ele>39.0</ele><time>2026-04-24T14:28:10.001Z</time></trkpt><trkpt lat="53.80793488340878" lon="11.13952854753983"><ele>38.0</ele><time>2026-04-24T14:28:11.001Z</time></trkpt><trkpt lat="53.80805753449998" lon="11.13931901487393"><ele>37.0</ele><time>2026-04-24T14:28:12.001Z</time></trkpt><trkpt lat="53.80818546963285" lon="11.139100478354639"><ele>37.0</ele><time>2026-04-24T14:28:13.001Z</time></trkpt><trkpt lat="53.808307962505005" lon="11.138878144617562"><ele>37.0</ele><time>2026-04-24T14:28:14.001Z</time></trkpt><trkpt lat="53.80842737639019" lon="11.138652781109297"><ele>37.0</ele><time>2026-04-24T14:28:15.001Z</time></trkpt><trkpt lat="53.8085496355788" lon="11.138432097168137"><ele>37.0</ele><time>2026-04-24T14:28:16.001Z</time></trkpt><trkpt lat="53.80867873186635" lon="11.138216659562335"><ele>37.0</ele><time>2026-04-24T14:28:17.001Z</time></trkpt><trkpt lat="53.80880331854972" lon="11.137988398608824"><ele>37.0</ele><time>2026-04-24T14:28:18.002Z</time></trkpt><trkpt lat="53.808922272799656" lon="11.137765415857965"><ele>37.0</ele><time>2026-04-24T14:28:19.002Z</time></trkpt><trkpt lat="53.809041617252824" lon="11.137553215397974"><ele>37.0</ele><time>2026-04-24T14:28:20.002Z</time></trkpt><trkpt lat="53.80916174109844" lon="11.13735101639701"><ele>37.0</ele><time>2026-04-24T14:28:21.002Z</time></trkpt><trkpt lat="53.80928116704756" lon="11.13714228752375"><ele>37.0</ele><time>2026-04-24T14:28:22.002Z</time></trkpt><trkpt lat="53.80940219770583" lon="11.136939109884391"><ele>37.0</ele><time>2026-04-24T14:28:23.002Z</time></trkpt><trkpt lat="53.80952490511842" lon="11.13673508541316"><ele>37.0</ele><time>2026-04-24T14:28:24.002Z</time></trkpt><trkpt lat="53.809645211492295" lon="11.13651756710243"><ele>37.0</ele><time>2026-04-24T14:28:25.002Z</time></trkpt><trkpt lat="53.80974836291736" lon="11.136296036158706"><ele>37.0</ele><time>2026-04-24T14:28:26.002Z</time></trkpt><trkpt lat="53.809855974310395" lon="11.136075727564549"><ele>37.0</ele><time>2026-04-24T14:28:27.002Z</time></trkpt><trkpt lat="53.80996976864217" lon="11.135861813298625"><ele>37.333333333333336</ele><time>2026-04-24T14:28:28.002Z</time></trkpt><trkpt lat="53.81008674173298" lon="11.135645024335279"><ele>37.666666666666664</ele><time>2026-04-24T14:28:29.002Z</time></trkpt><trkpt lat="53.81019954084301" lon="11.135431124714561"><ele>38.0</ele><time>2026-04-24T14:28:30.002Z</time></trkpt><trkpt lat="53.81031679305806" lon="11.135218646657092"><ele>38.0</ele><time>2026-04-24T14:28:31.002Z</time></trkpt><trkpt lat="53.810431575838" lon="11.135025911540973"><ele>38.0</ele><time>2026-04-24T14:28:32.002Z</time></trkpt><trkpt lat="53.810544103276605" lon="11.13482902459983"><ele>38.0</ele><time>2026-04-24T14:28:33.002Z</time></trkpt><trkpt lat="53.81065051972066" lon="11.13463474385089"><ele>38.0</ele><time>2026-04-24T14:28:34.002Z</time></trkpt><trkpt lat="53.81075949604312" lon="11.134418796614636"><ele>38.0</ele><time>2026-04-24T14:28:35.002Z</time></trkpt><trkpt lat="53.81086690347884" lon="11.134198388699849"><ele>38.0</ele><time>2026-04-24T14:28:36.002Z</time></trkpt><trkpt lat="53.810952982654264" lon="11.133973912176142"><ele>38.33333333333333</ele><time>2026-04-24T14:28:37.002Z</time></trkpt><trkpt lat="53.811024980814075" lon="11.133747109609685"><ele>38.666666666666664</ele><time>2026-04-24T14:28:38.002Z</time></trkpt><trkpt lat="53.8110919262489" lon="11.133503848007166"><ele>39.0</ele><time>2026-04-24T14:28:39.002Z</time></trkpt><trkpt lat="53.811142216499675" lon="11.13325142772383"><ele>38.666666666666664</ele><time>2026-04-24T14:28:40.002Z</time></trkpt><trkpt lat="53.811195261602734" lon="11.132963490250143"><ele>38.33333333333333</ele><time>2026-04-24T14:28:41.002Z</time></trkpt><trkpt lat="53.81125834991383" lon="11.132688804465634"><ele>38.0</ele><time>2026-04-24T14:28:42.002Z</time></trkpt><trkpt lat="53.81131103152767" lon="11.132422300767862"><ele>38.33333333333333</ele><time>2026-04-24T14:28:43.002Z</time></trkpt><trkpt lat="53.811376004343465" lon="11.132152289639949"><ele>38.666666666666664</ele><time>2026-04-24T14:28:44.002Z</time></trkpt><trkpt lat="53.811426491542775" lon="11.13185804907773"><ele>39.0</ele><time>2026-04-24T14:28:45.002Z</time></trkpt><trkpt lat="53.811471844076294" lon="11.13157382295515"><ele>39.666666666666664</ele><time>2026-04-24T14:28:46.002Z</time></trkpt><trkpt lat="53.81152502060946" lon="11.131292752960128"><ele>40.33333333333333</ele><time>2026-04-24T14:28:47.002Z</time></trkpt><trkpt lat="53.811572078668156" lon="11.131017506520552"><ele>41.0</ele><time>2026-04-24T14:28:48.002Z</time></trkpt><trkpt lat="53.811615588408955" lon="11.130748764051328"><ele>41.0</ele><time>2026-04-24T14:28:49.002Z</time></trkpt><trkpt lat="53.81165805263442" lon="11.130469618474862"><ele>41.0</ele><time>2026-04-24T14:28:50.002Z</time></trkpt><trkpt lat="53.81169909342368" lon="11.130222319042703"><ele>41.0</ele><time>2026-04-24T14:28:51.002Z</time></trkpt><trkpt lat="53.81189087543807" lon="11.129957334989472"><ele>41.33333333333333</ele><time>2026-04-24T14:28:52.002Z</time></trkpt><trkpt lat="53.8119513600176" lon="11.129630027569561"><ele>41.666666666666664</ele><time>2026-04-24T14:28:53.002Z</time></trkpt><trkpt lat="53.812009251364294" lon="11.12934650912058"><ele>42.0</ele><time>2026-04-24T14:28:54.002Z</time></trkpt><trkpt lat="53.81207428840759" lon="11.129090232711315"><ele>42.0</ele><time>2026-04-24T14:28:55.002Z</time></trkpt><trkpt lat="53.8121455588573" lon="11.12886481835464"><ele>42.0</ele><time>2026-04-24T14:28:56.002Z</time></trkpt><trkpt lat="53.81223039061835" lon="11.128611403172743"><ele>42.0</ele><time>2026-04-24T14:28:57.002Z</time></trkpt><trkpt lat="53.812312207860415" lon="11.128347491667201"><ele>41.666666666666664</ele><time>2026-04-24T14:28:58.002Z</time></trkpt><trkpt lat="53.81239371545887" lon="11.128077487159597"><ele>41.33333333333333</ele><time>2026-04-24T14:28:59.002Z</time></trkpt><trkpt lat="53.81247385156597" lon="11.12780290594638"><ele>41.0</ele><time>2026-04-24T14:29:00.002Z</time></trkpt><trkpt lat="53.81255321756143" lon="11.127505886702272"><ele>41.33333333333333</ele><time>2026-04-24T14:29:01.002Z</time></trkpt><trkpt lat="53.81261193448355" lon="11.12723477879399"><ele>41.666666666666664</ele><time>2026-04-24T14:29:02.002Z</time></trkpt><trkpt lat="53.81267068973501" lon="11.126952736746084"><ele>42.0</ele><time>2026-04-24T14:29:03.002Z</time></trkpt><trkpt lat="53.81272997850174" lon="11.126700180651191"><ele>42.5</ele><time>2026-04-24T14:29:04.002Z</time></trkpt><trkpt lat="53.812798451123456" lon="11.12649822181129"><ele>43.0</ele><time>2026-04-24T14:29:05.002Z</time></trkpt><trkpt lat="53.81287058681463" lon="11.126332118528305"><ele>43.5</ele><time>2026-04-24T14:29:06.002Z</time></trkpt><trkpt lat="53.81296946060556" lon="11.126154204991673"><ele>44.0</ele><time>2026-04-24T14:29:07.002Z</time></trkpt><trkpt lat="53.81304512246931" lon="11.126041077839147"><ele>44.0</ele><time>2026-04-24T14:29:08.002Z</time></trkpt><trkpt lat="53.813142510913195" lon="11.125938030479462"><ele>44.0</ele><time>2026-04-24T14:29:09.002Z</time></trkpt><trkpt lat="53.813248612822825" lon="11.125851781638984"><ele>44.0</ele><time>2026-04-24T14:29:10.002Z</time></trkpt><trkpt lat="53.81335683003778" lon="11.1257820481372"><ele>44.0</ele><time>2026-04-24T14:29:11.002Z</time></trkpt><trkpt lat="53.81347201319541" lon="11.125741486501704"><ele>44.0</ele><time>2026-04-24T14:29:12.002Z</time></trkpt><trkpt lat="53.81356716694941" lon="11.12573108226201"><ele>44.0</ele><time>2026-04-24T14:29:13.002Z</time></trkpt><trkpt lat="53.81365652973656" lon="11.125729419332865"><ele>44.0</ele><time>2026-04-24T14:29:14.002Z</time></trkpt><trkpt lat="53.81374821385312" lon="11.125732758880064"><ele>44.0</ele><time>2026-04-24T14:29:15.002Z</time></trkpt><trkpt lat="53.81388746863662" lon="11.125683001165012"><ele>44.0</ele><time>2026-04-24T14:29:16.002Z</time></trkpt><trkpt lat="53.81397958099729" lon="11.125615325454126"><ele>44.2</ele><time>2026-04-24T14:29:17.002Z</time></trkpt><trkpt lat="53.81407687289634" lon="11.125530770953505"><ele>44.400000000000006</ele><time>2026-04-24T14:29:18.002Z</time></trkpt><trkpt lat="53.81416216535997" lon="11.125453857267923"><ele>44.6</ele><time>2026-04-24T14:29:19.002Z</time></trkpt><trkpt lat="53.814221132831875" lon="11.125404056346778"><ele>44.8</ele><time>2026-04-24T14:29:20.002Z</time></trkpt><trkpt lat="53.81431726083722" lon="11.12534399358334"><ele>45.0</ele><time>2026-04-24T14:29:21.002Z</time></trkpt><trkpt lat="53.814462779609556" lon="11.125272258885737"><ele>45.0</ele><time>2026-04-24T14:29:22.002Z</time></trkpt><trkpt lat="53.81461053097585" lon="11.125214223826607"><ele>45.0</ele><time>2026-04-24T14:29:23.002Z</time></trkpt><trkpt lat="53.8146577659803" lon="11.125132061833876"><ele>45.0</ele><time>2026-04-24T14:29:24.002Z</time></trkpt><trkpt lat="53.81468723557121" lon="11.12495776054738"><ele>45.0</ele><time>2026-04-24T14:29:26.002Z</time></trkpt><trkpt lat="53.81461207949939" lon="11.124815853761167"><ele>45.0</ele><time>2026-04-24T14:29:28.002Z</time></trkpt><trkpt lat="53.81453481529389" lon="11.12471943387417"><ele>45.0</ele><time>2026-04-24T14:29:30.002Z</time></trkpt><trkpt lat="53.81447013298783" lon="11.124620682674916"><ele>45.0</ele><time>2026-04-24T14:29:32.002Z</time></trkpt><trkpt lat="53.81443538448502" lon="11.124521356392684"><ele>45.0</ele><time>2026-04-24T14:29:35.003Z</time></trkpt><trkpt lat="53.814318405207615" lon="11.124397501226374"><ele>45.0</ele><time>2026-04-24T14:29:57.003Z</time></trkpt><trkpt lat="53.814380114418896" lon="11.124339628338273"><ele>45.0</ele><time>2026-04-24T14:30:36.003Z</time></trkpt><trkpt lat="53.814432858643016" lon="11.124234724491819"><ele>45.0</ele><time>2026-04-24T14:31:51.004Z</time></trkpt><trkpt lat="53.81449567049125" lon="11.124184738500592"><ele>46.0</ele><time>2026-04-24T14:32:00.004Z</time></trkpt></trkseg></trk></gpx>